Wetterdaten: Woche 12.12.16 - 18.12.16 (KW50)
Datum Zeit Temp. A. Feuchte A. Luftdruck Regen Wind Richtung Taupunkt Windchill Windben
12.12.2016 00:00 2,9 C 91 % 1025,7 hPa 0,0 l/m 2,1 km/h (1 Bft) O-NO 1,5 C 2,9 C 5,9 km/h (2 Bft)
12.12.2016 01:00 3,0 C 91 % 1025,7 hPa 0,0 l/m 2,3 km/h (1 Bft) O-NO 1,7 C 3,0 C 6,5 km/h (2 Bft)
12.12.2016 02:00 2,9 C 93 % 1025,8 hPa 0,3 l/m 2,0 km/h (1 Bft) O 1,8 C 2,9 C 6,4 km/h (2 Bft)
12.12.2016 03:00 2,8 C 93 % 1025,8 hPa 0,0 l/m 1,8 km/h (1 Bft) O-SO 1,9 C 2,8 C 5,9 km/h (2 Bft)
12.12.2016 04:00 2,8 C 94 % 1025,8 hPa 0,3 l/m 1,4 km/h (1 Bft) O 1,9 C 2,8 C 4,4 km/h (1 Bft)
12.12.2016 05:00 2,4 C 96 % 1026,1 hPa 0,3 l/m 0,4 km/h (0 Bft) N 1,8 C 2,4 C 2,1 km/h (1 Bft)
12.12.2016 06:00 2,5 C 96 % 1026,3 hPa 0,0 l/m 0,5 km/h (0 Bft) O 1,9 C 2,5 C 1,5 km/h (1 Bft)
12.12.2016 07:00 2,3 C 96 % 1026,5 hPa 0,0 l/m 0,4 km/h (0 Bft) NO 1,7 C 2,3 C 2,0 km/h (1 Bft)
12.12.2016 08:00 2,2 C 96 % 1027,0 hPa 0,0 l/m 0,2 km/h (0 Bft) NO 1,7 C 2,2 C 1,2 km/h (1 Bft)
12.12.2016 09:00 2,6 C 96 % 1027,4 hPa 0,0 l/m 1,1 km/h (1 Bft) O-NO 2,0 C 2,6 C 3,5 km/h (1 Bft)
12.12.2016 10:00 3,4 C 93 % 1027,7 hPa 0,0 l/m 2,1 km/h (1 Bft) O 2,4 C 3,4 C 5,7 km/h (2 Bft)
12.12.2016 11:00 3,9 C 91 % 1027,7 hPa 0,0 l/m 2,1 km/h (1 Bft) NO 2,5 C 3,9 C 4,8 km/h (1 Bft)
12.12.2016 12:00 4,1 C 89 % 1027,6 hPa 0,0 l/m 2,8 km/h (1 Bft) NO 2,5 C 4,1 C 5,5 km/h (2 Bft)
12.12.2016 13:00 5,2 C 86 % 1027,2 hPa 0,0 l/m 2,0 km/h (1 Bft) O 3,0 C 5,2 C 4,8 km/h (1 Bft)
12.12.2016 14:00 6,3 C 80 % 1026,7 hPa 0,0 l/m 1,3 km/h (1 Bft) O-NO 3,2 C 6,3 C 3,2 km/h (1 Bft)
12.12.2016 15:00 5,6 C 81 % 1026,7 hPa 0,0 l/m 0,6 km/h (0 Bft) O-NO 2,7 C 5,6 C 2,0 km/h (1 Bft)
12.12.2016 16:00 2,3 C 89 % 1027,0 hPa 0,0 l/m 0,2 km/h (0 Bft) O-NO 0,7 C 2,3 C 0,9 km/h (0 Bft)
12.12.2016 17:00 -0,4 C 93 % 1027,3 hPa 0,0 l/m 0,0 km/h (0 Bft) O-NO -1,5 C -0,4 C 0,2 km/h (0 Bft)
12.12.2016 18:00 -1,3 C 94 % 1027,5 hPa 0,0 l/m 0,0 km/h (0 Bft) N -2,1 C -1,3 C 0,2 km/h (0 Bft)
12.12.2016 19:00 -2,0 C 96 % 1027,6 hPa 0,0 l/m 0,1 km/h (0 Bft) O-NO -2,6 C -2,0 C 0,7 km/h (0 Bft)
12.12.2016 20:00 -2,2 C 96 % 1027,9 hPa 0,0 l/m 0,0 km/h (0 Bft) O-NO -2,9 C -2,2 C 0,3 km/h (0 Bft)
12.12.2016 21:00 -2,6 C 96 % 1027,7 hPa 0,0 l/m 0,0 km/h (0 Bft) O-NO -3,1 C -2,6 C 0,4 km/h (0 Bft)
12.12.2016 22:00 -2,7 C 96 % 1028,0 hPa 0,0 l/m 0,0 km/h (0 Bft) O-NO -3,3 C -2,7 C 0,0 km/h (0 Bft)
12.12.2016 23:00 -3,3 C 96 % 1027,9 hPa 0,0 l/m 0,0 km/h (0 Bft) O-NO -3,9 C -3,3 C 0,1 km/h (0 Bft)
13.12.2016 00:00 -3,7 C 96 % 1027,7 hPa 0,0 l/m 0,0 km/h (0 Bft) O-NO -4,2 C -3,7 C 0,5 km/h (0 Bft)
13.12.2016 01:00 -4,0 C 96 % 1027,6 hPa 0,0 l/m 0,0 km/h (0 Bft) O-NO -4,6 C -4,0 C 0,4 km/h (0 Bft)
13.12.2016 02:00 -4,4 C 96 % 1028,1 hPa 0,0 l/m 0,0 km/h (0 Bft) O-NO -5,0 C -4,4 C 0,1 km/h (0 Bft)
13.12.2016 03:00 -5,0 C 95 % 1027,9 hPa 0,0 l/m 0,0 km/h (0 Bft) O-NO -5,6 C -5,0 C 0,0 km/h (0 Bft)
13.12.2016 04:00 -5,1 C 95 % 1027,7 hPa 0,0 l/m 0,1 km/h (0 Bft) O-NO -5,7 C -5,1 C 0,5 km/h (0 Bft)
13.12.2016 05:00 -5,2 C 95 % 1027,2 hPa 0,0 l/m 0,1 km/h (0 Bft) O-NO -5,9 C -5,2 C 0,3 km/h (0 Bft)
13.12.2016 06:00 -5,4 C 95 % 1027,3 hPa 0,0 l/m 0,1 km/h (0 Bft) O-NO -6,1 C -5,4 C 0,4 km/h (0 Bft)
13.12.2016 07:00 -5,4 C 95 % 1027,6 hPa 0,0 l/m 0,2 km/h (0 Bft) O-NO -6,0 C -5,4 C 0,8 km/h (0 Bft)
13.12.2016 08:00 -5,0 C 95 % 1027,8 hPa 0,0 l/m 0,1 km/h (0 Bft) O-NO -5,6 C -5,0 C 0,4 km/h (0 Bft)
13.12.2016 09:00 -3,2 C 97 % 1028,2 hPa 0,0 l/m 0,0 km/h (0 Bft) O-NO -3,6 C -3,2 C 0,4 km/h (0 Bft)
13.12.2016 10:00 -0,5 C 95 % 1028,2 hPa 0,0 l/m 0,6 km/h (0 Bft) O-NO -1,1 C -0,5 C 2,1 km/h (1 Bft)
13.12.2016 11:00 2,0 C 92 % 1027,9 hPa 0,0 l/m 1,0 km/h (0 Bft) O-NO 0,8 C 2,0 C 2,6 km/h (1 Bft)
13.12.2016 12:00 3,2 C 90 % 1027,7 hPa 0,0 l/m 0,7 km/h (0 Bft) N-NO 1,7 C 3,2 C 1,9 km/h (1 Bft)
13.12.2016 13:00 3,4 C 92 % 1027,5 hPa 0,0 l/m 0,2 km/h (0 Bft) N-NO 2,1 C 3,4 C 1,3 km/h (1 Bft)
13.12.2016 14:00 4,1 C 91 % 1027,3 hPa 0,0 l/m 0,0 km/h (0 Bft) N-NO 2,7 C 4,1 C 0,4 km/h (0 Bft)
13.12.2016 15:00 3,9 C 91 % 1027,1 hPa 0,0 l/m 0,1 km/h (0 Bft) N-NO 2,5 C 3,9 C 0,4 km/h (0 Bft)
13.12.2016 16:00 2,6 C 92 % 1027,2 hPa 0,3 l/m 0,1 km/h (0 Bft) N-NO 1,5 C 2,6 C 1,2 km/h (1 Bft)
13.12.2016 17:00 1,2 C 94 % 1027,4 hPa 0,0 l/m 0,0 km/h (0 Bft) N-NO 0,4 C 1,2 C 0,6 km/h (0 Bft)
13.12.2016 18:00 0,8 C 96 % 1027,4 hPa 0,0 l/m 0,2 km/h (0 Bft) N 0,2 C 0,8 C 0,6 km/h (0 Bft)
13.12.2016 19:00 0,9 C 96 % 1027,5 hPa 0,0 l/m 0,0 km/h (0 Bft) N 0,3 C 0,9 C 0,1 km/h (0 Bft)
13.12.2016 20:00 1,3 C 96 % 1027,6 hPa 0,0 l/m 0,0 km/h (0 Bft) N 0,8 C 1,3 C 0,4 km/h (0 Bft)
13.12.2016 21:00 1,6 C 96 % 1027,4 hPa 0,0 l/m 0,0 km/h (0 Bft) N 1,1 C 1,6 C 0,1 km/h (0 Bft)
13.12.2016 22:00 1,8 C 96 % 1027,3 hPa 0,0 l/m 0,1 km/h (0 Bft) N 1,3 C 1,8 C 0,5 km/h (0 Bft)
13.12.2016 23:00 1,9 C 96 % 1027,3 hPa 0,0 l/m 0,0 km/h (0 Bft) N 1,3 C 1,9 C 0,2 km/h (0 Bft)
14.12.2016 00:00 1,9 C 96 % 1027,0 hPa 0,0 l/m 0,0 km/h (0 Bft) N 1,3 C 1,9 C 0,1 km/h (0 Bft)
14.12.2016 01:00 1,4 C 96 % 1026,3 hPa 0,0 l/m 0,0 km/h (0 Bft) N-NO 0,8 C 1,4 C 0,3 km/h (0 Bft)
14.12.2016 02:00 1,2 C 96 % 1026,1 hPa 0,0 l/m 0,2 km/h (0 Bft) N-NO 0,6 C 1,2 C 0,7 km/h (0 Bft)
14.12.2016 03:00 1,0 C 96 % 1025,9 hPa 0,0 l/m 0,1 km/h (0 Bft) N-NO 0,4 C 1,0 C 0,8 km/h (0 Bft)
14.12.2016 04:00 1,1 C 97 % 1025,5 hPa 0,0 l/m 0,1 km/h (0 Bft) N-NO 0,7 C 1,1 C 1,1 km/h (0 Bft)
14.12.2016 05:00 1,3 C 96 % 1025,5 hPa 0,0 l/m 0,2 km/h (0 Bft) N-NO 0,7 C 1,3 C 0,9 km/h (0 Bft)
14.12.2016 06:00 1,3 C 96 % 1025,5 hPa 0,0 l/m 0,0 km/h (0 Bft) N-NO 0,7 C 1,3 C 0,5 km/h (0 Bft)
14.12.2016 07:00 1,2 C 96 % 1025,4 hPa 0,0 l/m 0,2 km/h (0 Bft) N-NO 0,6 C 1,2 C 1,3 km/h (1 Bft)
14.12.2016 08:00 0,8 C 96 % 1025,6 hPa 0,0 l/m 0,1 km/h (0 Bft) N-NO 0,2 C 0,8 C 0,9 km/h (0 Bft)
14.12.2016 09:00 0,9 C 97 % 1025,9 hPa 0,0 l/m 0,1 km/h (0 Bft) N-NO 0,5 C 0,9 C 0,7 km/h (0 Bft)
14.12.2016 10:00 2,3 C 97 % 1025,9 hPa 0,0 l/m 0,4 km/h (0 Bft) S-SO 1,9 C 2,3 C 1,6 km/h (1 Bft)
14.12.2016 11:00 4,3 C 94 % 1025,7 hPa 0,0 l/m 0,4 km/h (0 Bft) S-SO 3,4 C 4,3 C 1,6 km/h (1 Bft)
14.12.2016 12:00 5,5 C 90 % 1025,5 hPa 0,0 l/m 0,2 km/h (0 Bft) S 3,9 C 5,5 C 1,0 km/h (0 Bft)
14.12.2016 13:00 9,2 C 77 % 1024,9 hPa 0,0 l/m 1,1 km/h (1 Bft) S 5,4 C 9,2 C 3,1 km/h (1 Bft)
14.12.2016 14:00 10,5 C 73 % 1024,6 hPa 0,0 l/m 0,9 km/h (0 Bft) S 5,8 C 10,5 C 2,5 km/h (1 Bft)
14.12.2016 15:00 9,8 C 73 % 1024,6 hPa 0,0 l/m 0,2 km/h (0 Bft) S 5,1 C 9,8 C 1,6 km/h (1 Bft)
14.12.2016 16:00 6,3 C 81 % 1024,8 hPa 0,0 l/m 0,0 km/h (0 Bft) S 3,2 C 6,3 C 0,4 km/h (0 Bft)
14.12.2016 17:00 2,4 C 91 % 1025,5 hPa 0,0 l/m 0,0 km/h (0 Bft) S 1,0 C 2,4 C 0,0 km/h (0 Bft)
14.12.2016 18:00 0,9 C 93 % 1025,8 hPa 0,0 l/m 0,0 km/h (0 Bft) N -0,1 C 0,9 C 0,0 km/h (0 Bft)
14.12.2016 19:00 -0,2 C 95 % 1025,9 hPa 0,0 l/m 0,0 km/h (0 Bft) N -0,9 C -0,2 C 0,0 km/h (0 Bft)
14.12.2016 20:00 -0,9 C 96 % 1026,1 hPa 0,0 l/m 0,0 km/h (0 Bft) N -1,5 C -0,9 C 0,1 km/h (0 Bft)
14.12.2016 21:00 -1,1 C 96 % 1026,4 hPa 0,0 l/m 0,0 km/h (0 Bft) N -1,7 C -1,1 C 0,1 km/h (0 Bft)
14.12.2016 22:00 -1,7 C 96 % 1026,6 hPa 0,0 l/m 0,0 km/h (0 Bft) N -2,2 C -1,7 C 0,2 km/h (0 Bft)
14.12.2016 23:00 -2,1 C 96 % 1026,8 hPa 0,0 l/m 0,0 km/h (0 Bft) N -2,7 C -2,1 C 0,0 km/h (0 Bft)
15.12.2016 00:00 -2,3 C 96 % 1026,7 hPa 0,0 l/m 0,0 km/h (0 Bft) N -2,9 C -2,3 C 0,4 km/h (0 Bft)
15.12.2016 01:00 -2,7 C 96 % 1026,9 hPa 0,0 l/m 0,0 km/h (0 Bft) S -3,1 C -2,7 C 0,1 km/h (0 Bft)
15.12.2016 02:00 -2,8 C 96 % 1027,0 hPa 0,0 l/m 0,0 km/h (0 Bft) S -3,3 C -2,8 C 0,3 km/h (0 Bft)
15.12.2016 03:00 -3,0 C 97 % 1027,0 hPa 0,0 l/m 0,0 km/h (0 Bft) S -3,5 C -3,0 C 0,4 km/h (0 Bft)
15.12.2016 04:00 -3,3 C 96 % 1027,1 hPa 0,0 l/m 0,0 km/h (0 Bft) S -3,8 C -3,3 C 0,0 km/h (0 Bft)
15.12.2016 05:00 -3,5 C 96 % 1027,1 hPa 0,0 l/m 0,0 km/h (0 Bft) S -4,0 C -3,5 C 0,2 km/h (0 Bft)
15.12.2016 06:00 -3,5 C 97 % 1027,1 hPa 0,0 l/m 0,0 km/h (0 Bft) S -4,0 C -3,5 C 0,1 km/h (0 Bft)
15.12.2016 07:00 -3,8 C 96 % 1027,2 hPa 0,0 l/m 0,0 km/h (0 Bft) S -4,3 C -3,8 C 0,0 km/h (0 Bft)
15.12.2016 08:00 -3,7 C 97 % 1027,6 hPa 0,0 l/m 0,0 km/h (0 Bft) S -4,1 C -3,7 C 0,3 km/h (0 Bft)
15.12.2016 09:00 -2,9 C 97 % 1027,8 hPa 0,0 l/m 0,0 km/h (0 Bft) S -3,3 C -2,9 C 0,4 km/h (0 Bft)
15.12.2016 10:00 -0,7 C 97 % 1027,8 hPa 0,3 l/m 0,7 km/h (0 Bft) S -1,1 C -0,7 C 2,0 km/h (1 Bft)
15.12.2016 11:00 2,0 C 93 % 1027,4 hPa 0,0 l/m 1,1 km/h (1 Bft) SW 1,1 C 2,0 C 2,9 km/h (1 Bft)
15.12.2016 12:00 4,4 C 90 % 1026,9 hPa 0,0 l/m 1,7 km/h (1 Bft) W 2,9 C 4,4 C 3,5 km/h (1 Bft)
15.12.2016 13:00 6,6 C 83 % 1026,4 hPa 0,0 l/m 2,7 km/h (1 Bft) W-NW 3,9 C 6,6 C 6,3 km/h (2 Bft)
15.12.2016 14:00 6,4 C 80 % 1026,2 hPa 0,0 l/m 2,6 km/h (1 Bft) W-NW 3,3 C 6,4 C 6,1 km/h (2 Bft)
15.12.2016 15:00 5,8 C 81 % 1026,2 hPa 0,0 l/m 1,5 km/h (1 Bft) W 2,8 C 5,8 C 3,5 km/h (1 Bft)
15.12.2016 16:00 3,4 C 86 % 1026,6 hPa 0,0 l/m 0,2 km/h (0 Bft) S-SW 1,3 C 3,4 C 1,2 km/h (1 Bft)
15.12.2016 17:00 0,4 C 92 % 1026,9 hPa 0,0 l/m 0,0 km/h (0 Bft) S-SW -0,8 C 0,4 C 0,2 km/h (0 Bft)
15.12.2016 18:00 -0,6 C 94 % 1027,0 hPa 0,0 l/m 0,1 km/h (0 Bft) S-SW -1,5 C -0,6 C 1,1 km/h (1 Bft)
15.12.2016 19:00 -0,1 C 95 % 1027,4 hPa 0,0 l/m 2,2 km/h (1 Bft) NO -0,8 C -0,1 C 5,6 km/h (2 Bft)
15.12.2016 20:00 -0,3 C 94 % 1027,4 hPa 0,0 l/m 1,3 km/h (1 Bft) O -1,2 C -0,3 C 4,7 km/h (1 Bft)
15.12.2016 21:00 -0,6 C 94 % 1027,5 hPa 0,0 l/m 1,6 km/h (1 Bft) NO -1,5 C -0,6 C 4,5 km/h (1 Bft)
15.12.2016 22:00 -0,8 C 94 % 1027,6 hPa 0,0 l/m 1,3 km/h (1 Bft) O-SO -1,7 C -0,8 C 4,0 km/h (1 Bft)
15.12.2016 23:00 -0,8 C 94 % 1027,7 hPa 0,0 l/m 1,4 km/h (1 Bft) O -1,6 C -0,8 C 4,1 km/h (1 Bft)
16.12.2016 00:00 -0,9 C 94 % 1027,8 hPa 0,0 l/m 1,5 km/h (1 Bft) NW -1,7 C -0,9 C 4,2 km/h (1 Bft)
16.12.2016 01:00 -1,1 C 95 % 1027,7 hPa 0,0 l/m 1,5 km/h (1 Bft) NW -1,8 C -1,1 C 4,5 km/h (1 Bft)
16.12.2016 02:00 -1,2 C 95 % 1027,9 hPa 0,0 l/m 1,1 km/h (1 Bft) W-NW -1,9 C -1,2 C 3,5 km/h (1 Bft)
16.12.2016 03:00 -1,5 C 96 % 1027,9 hPa 0,0 l/m 0,8 km/h (0 Bft) W-NW -2,0 C -1,5 C 2,9 km/h (1 Bft)
16.12.2016 04:00 -1,7 C 96 % 1027,9 hPa 0,0 l/m 1,1 km/h (1 Bft) O-NO -2,3 C -1,7 C 3,6 km/h (1 Bft)
16.12.2016 05:00 -2,0 C 96 % 1028,1 hPa 0,0 l/m 1,1 km/h (1 Bft) N -2,6 C -2,0 C 2,9 km/h (1 Bft)
16.12.2016 06:00 -2,1 C 96 % 1028,5 hPa 0,0 l/m 0,9 km/h (0 Bft) N-NW -2,6 C -2,1 C 3,1 km/h (1 Bft)
16.12.2016 07:00 -2,1 C 97 % 1028,9 hPa 0,0 l/m 1,2 km/h (1 Bft) N-NW -2,6 C -2,1 C 3,5 km/h (1 Bft)
16.12.2016 08:00 -2,2 C 97 % 1029,6 hPa 0,0 l/m 0,9 km/h (0 Bft) NO -2,6 C -2,2 C 3,6 km/h (1 Bft)
16.12.2016 09:00 -2,1 C 97 % 1030,0 hPa 0,0 l/m 1,2 km/h (1 Bft) W-NW -2,5 C -2,1 C 3,7 km/h (1 Bft)
16.12.2016 10:00 -1,8 C 97 % 1030,4 hPa 0,0 l/m 1,1 km/h (1 Bft) O -2,2 C -1,8 C 3,7 km/h (1 Bft)
16.12.2016 11:00 -1,4 C 96 % 1030,3 hPa 0,0 l/m 0,7 km/h (0 Bft) NO -1,9 C -1,4 C 2,8 km/h (1 Bft)
16.12.2016 12:00 -0,8 C 95 % 1030,1 hPa 0,0 l/m 1,1 km/h (1 Bft) NO -1,5 C -0,8 C 2,9 km/h (1 Bft)
16.12.2016 13:00 -0,5 C 95 % 1030,1 hPa 0,0 l/m 0,8 km/h (0 Bft) NW -1,2 C -0,5 C 2,8 km/h (1 Bft)
16.12.2016 14:00 0,2 C 94 % 1030,2 hPa 0,0 l/m 0,8 km/h (0 Bft) NW -0,6 C 0,2 C 3,2 km/h (1 Bft)
16.12.2016 15:00 -0,1 C 94 % 1030,7 hPa 0,0 l/m 0,8 km/h (0 Bft) S-SW -0,8 C -0,1 C 2,7 km/h (1 Bft)
16.12.2016 16:00 -0,5 C 96 % 1031,5 hPa 0,0 l/m 0,9 km/h (0 Bft) W -1,2 C -0,5 C 3,5 km/h (1 Bft)
16.12.2016 17:00 -1,0 C 96 % 1032,4 hPa 0,0 l/m 0,4 km/h (0 Bft) W -1,5 C -1,0 C 1,8 km/h (1 Bft)
16.12.2016 18:00 -1,3 C 97 % 1032,9 hPa 0,0 l/m 0,9 km/h (0 Bft) O -1,7 C -1,3 C 2,1 km/h (1 Bft)
16.12.2016 19:00 -1,8 C 97 % 1033,6 hPa 0,0 l/m 0,3 km/h (0 Bft) O -2,3 C -1,8 C 1,6 km/h (1 Bft)
16.12.2016 20:00 -2,4 C 97 % 1034,0 hPa 0,0 l/m 0,2 km/h (0 Bft) O -2,8 C -2,4 C 1,1 km/h (0 Bft)
16.12.2016 21:00 -3,1 C 97 % 1034,5 hPa 0,0 l/m 0,1 km/h (0 Bft) O -3,5 C -3,1 C 0,7 km/h (0 Bft)
16.12.2016 22:00 -2,9 C 97 % 1035,1 hPa 0,0 l/m 0,5 km/h (0 Bft) O-SO -3,3 C -2,9 C 2,7 km/h (1 Bft)
16.12.2016 23:00 -3,2 C 96 % 1035,5 hPa 0,0 l/m 0,1 km/h (0 Bft) O-SO -3,7 C -3,2 C 0,7 km/h (0 Bft)
17.12.2016 00:00 -4,1 C 96 % 1035,9 hPa 0,0 l/m 0,0 km/h (0 Bft) O-SO -4,7 C -4,1 C 0,1 km/h (0 Bft)
17.12.2016 01:00 -4,7 C 96 % 1036,2 hPa 0,0 l/m 0,0 km/h (0 Bft) O-SO -5,2 C -4,7 C 0,1 km/h (0 Bft)
17.12.2016 02:00 -4,6 C 96 % 1036,4 hPa 0,0 l/m 0,0 km/h (0 Bft) O-SO -5,1 C -4,6 C 0,4 km/h (0 Bft)
17.12.2016 03:00 -4,7 C 96 % 1036,7 hPa 0,0 l/m 0,0 km/h (0 Bft) O-SO -5,2 C -4,7 C 0,0 km/h (0 Bft)
17.12.2016 04:00 -5,1 C 96 % 1036,9 hPa 0,0 l/m 0,0 km/h (0 Bft) O-SO -5,7 C -5,1 C 0,0 km/h (0 Bft)
17.12.2016 05:00 -5,4 C 96 % 1037,0 hPa 0,0 l/m 0,0 km/h (0 Bft) O-SO -5,9 C -5,4 C 0,0 km/h (0 Bft)
17.12.2016 06:00 -5,2 C 96 % 1037,5 hPa 0,0 l/m 0,1 km/h (0 Bft) O-SO -5,7 C -5,2 C 0,3 km/h (0 Bft)
17.12.2016 07:00 -4,6 C 97 % 1038,3 hPa 0,0 l/m 0,0 km/h (0 Bft) O-SO -5,0 C -4,6 C 0,0 km/h (0 Bft)
17.12.2016 08:00 -4,2 C 96 % 1038,7 hPa 0,0 l/m 0,0 km/h (0 Bft) O-SO -4,8 C -4,2 C 0,0 km/h (0 Bft)
17.12.2016 09:00 -2,9 C 97 % 1039,0 hPa 0,0 l/m 0,0 km/h (0 Bft) O-SO -3,2 C -2,9 C 0,4 km/h (0 Bft)
17.12.2016 10:00 -0,6 C 96 % 1039,4 hPa 0,0 l/m 0,6 km/h (0 Bft) O-SO -1,1 C -0,6 C 1,7 km/h (1 Bft)
17.12.2016 11:00 1,4 C 93 % 1039,3 hPa 0,0 l/m 1,1 km/h (1 Bft) O-SO 0,4 C 1,4 C 2,7 km/h (1 Bft)
17.12.2016 12:00 3,1 C 90 % 1039,1 hPa 0,0 l/m 1,3 km/h (1 Bft) O-SO 1,6 C 3,1 C 2,4 km/h (1 Bft)
17.12.2016 13:00 3,4 C 92 % 1039,1 hPa 0,0 l/m 0,2 km/h (0 Bft) O-SO 2,2 C 3,4 C 1,2 km/h (1 Bft)
17.12.2016 14:00 3,5 C 92 % 1038,9 hPa 0,0 l/m 0,2 km/h (0 Bft) O-SO 2,4 C 3,5 C 1,3 km/h (1 Bft)
17.12.2016 15:00 3,6 C 93 % 1039,0 hPa 0,0 l/m 0,2 km/h (0 Bft) O-SO 2,5 C 3,6 C 0,5 km/h (0 Bft)
17.12.2016 16:00 3,0 C 93 % 1039,2 hPa 0,0 l/m 0,0 km/h (0 Bft) O-SO 2,0 C 3,0 C 0,1 km/h (0 Bft)
17.12.2016 17:00 2,3 C 95 % 1039,3 hPa 0,0 l/m 0,0 km/h (0 Bft) O-SO 1,5 C 2,3 C 0,1 km/h (0 Bft)
17.12.2016 18:00 2,1 C 95 % 1039,4 hPa 0,0 l/m 0,0 km/h (0 Bft) O-SO 1,4 C 2,1 C 0,4 km/h (0 Bft)
17.12.2016 19:00 1,9 C 96 % 1039,2 hPa 0,0 l/m 0,0 km/h (0 Bft) O-SO 1,3 C 1,9 C 0,0 km/h (0 Bft)
17.12.2016 20:00 1,8 C 96 % 1039,2 hPa 0,0 l/m 0,1 km/h (0 Bft) O-SO 1,2 C 1,8 C 0,5 km/h (0 Bft)
17.12.2016 21:00 1,7 C 96 % 1039,2 hPa 0,0 l/m 0,0 km/h (0 Bft) O-SO 1,1 C 1,7 C 0,1 km/h (0 Bft)
17.12.2016 22:00 1,5 C 96 % 1039,0 hPa 0,0 l/m 0,1 km/h (0 Bft) O-SO 1,0 C 1,5 C 0,8 km/h (0 Bft)
17.12.2016 23:00 1,3 C 97 % 1038,8 hPa 0,0 l/m 0,0 km/h (0 Bft) O-SO 0,8 C 1,3 C 0,3 km/h (0 Bft)
18.12.2016 00:00 1,0 C 97 % 1038,5 hPa 0,0 l/m 0,0 km/h (0 Bft) O-SO 0,6 C 1,0 C 0,4 km/h (0 Bft)
18.12.2016 01:00 1,0 C 97 % 1038,0 hPa 0,3 l/m 0,1 km/h (0 Bft) O-SO 0,6 C 1,0 C 0,9 km/h (0 Bft)
18.12.2016 02:00 1,1 C 97 % 1037,6 hPa 0,0 l/m 0,1 km/h (0 Bft) O-SO 0,7 C 1,1 C 0,8 km/h (0 Bft)
18.12.2016 03:00 0,7 C 97 % 1037,6 hPa 0,0 l/m 0,0 km/h (0 Bft) O-SO 0,3 C 0,7 C 0,3 km/h (0 Bft)
18.12.2016 04:00 0,5 C 97 % 1037,4 hPa 0,0 l/m 0,1 km/h (0 Bft) O-SO 0,1 C 0,5 C 0,8 km/h (0 Bft)
18.12.2016 05:00 0,1 C 98 % 1037,0 hPa 0,0 l/m 0,2 km/h (0 Bft) S-SO -0,3 C 0,1 C 1,4 km/h (1 Bft)
18.12.2016 06:00 0,1 C 98 % 1037,1 hPa 0,0 l/m 0,1 km/h (0 Bft) S-SO -0,2 C 0,1 C 0,3 km/h (0 Bft)
18.12.2016 07:00 0,3 C 98 % 1037,1 hPa 0,0 l/m 0,1 km/h (0 Bft) S-SO 0,0 C 0,3 C 0,7 km/h (0 Bft)
18.12.2016 08:00 0,4 C 98 % 1036,8 hPa 0,0 l/m 0,5 km/h (0 Bft) O-SO 0,1 C 0,4 C 2,0 km/h (1 Bft)
18.12.2016 09:00 0,6 C 98 % 1036,5 hPa 0,0 l/m 1,2 km/h (1 Bft) O 0,3 C 0,6 C 3,2 km/h (1 Bft)
18.12.2016 10:00 1,2 C 98 % 1036,6 hPa 0,0 l/m 0,5 km/h (0 Bft) O 0,9 C 1,2 C 2,1 km/h (1 Bft)
18.12.2016 11:00 1,7 C 98 % 1036,1 hPa 0,0 l/m 0,9 km/h (0 Bft) O 1,4 C 1,7 C 2,5 km/h (1 Bft)
18.12.2016 12:00 2,2 C 98 % 1035,7 hPa 0,0 l/m 0,6 km/h (0 Bft) NO 2,0 C 2,2 C 2,0 km/h (1 Bft)
18.12.2016 13:00 2,2 C 97 % 1035,0 hPa 0,0 l/m 1,4 km/h (1 Bft) NW 1,8 C 2,2 C 3,7 km/h (1 Bft)
18.12.2016 14:00 1,9 C 97 % 1034,5 hPa 0,0 l/m 1,7 km/h (1 Bft) NW 1,5 C 1,9 C 4,5 km/h (1 Bft)
18.12.2016 15:00 1,5 C 97 % 1034,2 hPa 0,0 l/m 1,4 km/h (1 Bft) W 1,1 C 1,5 C 4,3 km/h (1 Bft)
18.12.2016 16:00 1,2 C 97 % 1034,0 hPa 0,0 l/m 1,2 km/h (1 Bft) N-NW 0,8 C 1,2 C 4,0 km/h (1 Bft)
18.12.2016 17:00 0,8 C 98 % 1032,9 hPa 0,0 l/m 0,7 km/h (0 Bft) NW 0,5 C 0,8 C 2,2 km/h (1 Bft)
18.12.2016 18:00 0,8 C 98 % 1032,4 hPa 0,0 l/m 0,4 km/h (0 Bft) NW 0,5 C 0,8 C 1,7 km/h (1 Bft)
18.12.2016 19:00 0,7 C 98 % 1032,3 hPa 0,0 l/m 0,8 km/h (0 Bft) W-SW 0,4 C 0,7 C 2,5 km/h (1 Bft)
18.12.2016 20:00 0,6 C 98 % 1032,1 hPa 0,0 l/m 0,7 km/h (0 Bft) W-SW 0,4 C 0,6 C 2,4 km/h (1 Bft)
18.12.2016 21:00 0,7 C 98 % 1032,0 hPa 0,0 l/m 1,3 km/h (1 Bft) NW 0,4 C 0,7 C 3,3 km/h (1 Bft)
18.12.2016 22:00 0,7 C 98 % 1031,5 hPa 0,0 l/m 2,0 km/h (1 Bft) W-NW 0,4 C 0,7 C 6,0 km/h (2 Bft)
18.12.2016 23:00 0,6 C 98 % 1031,1 hPa 0,0 l/m 1,4 km/h (1 Bft) W 0,3 C 0,6 C 4,5 km/h (1 Bft)
Min-Datum _ 13.12.16 14.12.16 14.12.16 - 18.12.16 - 13.12.16 13.12.16 18.12.16
_ Min-Zeit 07:25 15:15 15:05 - 18:00 - 07:25 07:25 18:05
Minimum _ -5,6 C 72 % 1024,4 hPa - 0,0 km/h (0 Bft) - -6,3 C -5,6 C 0,0 km/h (0 Bft)
Max-Datum _ 14.12.16 18.12.16 17.12.16 18.12.16 12.12.16 - 14.12.16 14.12.16 12.12.16
_ Max-Zeit 14:00 23:00 11:00 01:40 12:14 - 14:30 14:00 02:00
Maximum _ 10,7 C 98 % 1039,7 hPa 0,3 l/m 4,8 km/h
NO (1 Bft)
- 6,2 C 10,7 C 14,5 km/h
O-NO (3 Bft)
Durchschnitt _ 0,3 C 94 % 1030,2 hPa #1,5 l/m 0,5 km/h (0 Bft) N -0,6 C 0,3 C 1,7 km/h (1 Bft)